Time;durP1;ratioP1;P1;durP2;ratioP2;P2;SDS_P1;SDS_P2;PMS_P1;PMS_P2;Temp;Humidity;BMP_temperature;BMP_pressure;BME280_temperature;BME280_humidity;BME280_pressure;Samples;Min_cycle;Max_cycle;Signal;HPM_P1;HPM_P2
2022/03/12 00:00:56;;;;;;;15.20;8.70;;;;;;;;;;5001790;28;20050;-78
2022/03/12 00:03:23;;;;;;;10.80;7.65;;;;;;;;;;5004038;28;20053;-77
2022/03/12 00:05:55;;;;;;;9.73;7.05;;;;;;;;;;5000910;28;20415;-76
2022/03/12 00:08:46;;;;;;;8.23;5.30;;;;;;;;;;4998129;28;20517;-75
2022/03/12 00:11:18;;;;;;;7.80;5.03;;;;;;;;;;5001228;28;21370;-78
2022/03/12 00:13:46;;;;;;;6.88;4.00;;;;;;;;;;5003427;28;20080;-78
2022/03/12 00:16:22;;;;;;;6.93;4.05;;;;;;;;;;4998130;28;20103;-78
2022/03/12 00:18:55;;;;;;;5.25;4.07;;;;;;;;;;5003068;28;20053;-74
2022/03/12 00:21:24;;;;;;;6.00;3.20;;;;;;;;;;5000317;28;20144;-76
2022/03/12 00:23:51;;;;;;;4.68;3.08;;;;;;;;;;5002653;28;20453;-76
2022/03/12 00:26:19;;;;;;;4.50;2.80;;;;;;;;;;5002344;28;20041;-75
2022/03/12 00:28:45;;;;;;;3.22;2.53;;;;;;;;;;4999562;28;20049;-76
2022/03/12 00:31:12;;;;;;;3.65;2.20;;;;;;;;;;5008369;28;20160;-77
2022/03/12 00:33:37;;;;;;;2.88;2.03;;;;;;;;;;5005331;28;20630;-76
2022/03/12 00:36:04;;;;;;;2.60;1.90;;;;;;;;;;5001816;28;20316;-76
2022/03/12 00:38:30;;;;;;;3.30;1.70;;;;;;;;;;4998095;28;20054;-75
2022/03/12 00:40:56;;;;;;;3.05;1.60;;;;;;;;;;4999766;28;20415;-75
2022/03/12 00:43:23;;;;;;;2.35;1.55;;;;;;;;;;5000699;28;20057;-74
2022/03/12 00:45:49;;;;;;;3.33;1.60;;;;;;;;;;4998072;28;20041;-77
2022/03/12 00:48:16;;;;;;;2.13;1.52;;;;;;;;;;4994145;28;20133;-74
2022/03/12 00:50:42;;;;;;;2.75;1.50;;;;;;;;;;4984740;28;20061;-75
2022/03/12 00:53:09;;;;;;;2.63;1.63;;;;;;;;;;4999933;28;20057;-74
2022/03/12 00:55:35;;;;;;;3.88;1.70;;;;;;;;;;4998954;28;20162;-75
2022/03/12 00:58:01;;;;;;;3.15;1.60;;;;;;;;;;4998084;28;20355;-76
2022/03/12 01:00:27;;;;;;;1.88;1.50;;;;;;;;;;4985024;28;20115;-73
2022/03/12 01:02:53;;;;;;;3.30;1.58;;;;;;;;;;5001088;28;20507;-75
2022/03/12 01:05:23;;;;;;;2.83;1.45;;;;;;;;;;5003601;28;20065;-76
2022/03/12 01:07:50;;;;;;;2.75;1.52;;;;;;;;;;4997847;28;20145;-77
2022/03/12 01:10:16;;;;;;;3.03;1.70;;;;;;;;;;5001590;28;20049;-75
2022/03/12 01:12:43;;;;;;;3.28;1.70;;;;;;;;;;5002476;28;20055;-75
2022/03/12 01:15:11;;;;;;;3.28;1.80;;;;;;;;;;5002168;28;20111;-76
2022/03/12 01:17:38;;;;;;;2.17;1.50;;;;;;;;;;5002656;28;20060;-74
2022/03/12 01:20:06;;;;;;;3.28;1.80;;;;;;;;;;5004310;28;20050;-76
2022/03/12 01:22:35;;;;;;;3.80;1.80;;;;;;;;;;5004766;28;20627;-77
2022/03/12 01:25:04;;;;;;;4.10;1.70;;;;;;;;;;5005120;28;20061;-75
2022/03/12 01:27:29;;;;;;;3.05;1.73;;;;;;;;;;4998054;28;20473;-73
2022/03/12 01:29:56;;;;;;;3.95;2.00;;;;;;;;;;5002240;28;20115;-74
2022/03/12 01:32:21;;;;;;;4.72;2.58;;;;;;;;;;5002966;28;20065;-76
2022/03/12 01:34:47;;;;;;;3.00;2.20;;;;;;;;;;5006468;28;20053;-76
2022/03/12 01:37:19;;;;;;;3.90;2.50;;;;;;;;;;4999154;28;20050;-75
2022/03/12 01:39:48;;;;;;;4.40;2.88;;;;;;;;;;5003286;28;20058;-75
2022/03/12 01:42:16;;;;;;;4.68;3.00;;;;;;;;;;4999813;28;20061;-75
2022/03/12 01:44:43;;;;;;;4.55;3.53;;;;;;;;;;5001037;28;20552;-76
2022/03/12 01:47:10;;;;;;;5.00;3.70;;;;;;;;;;4997724;28;21431;-75
2022/03/12 01:49:37;;;;;;;7.05;4.32;;;;;;;;;;4999993;28;20072;-75
2022/03/12 01:52:04;;;;;;;7.30;4.60;;;;;;;;;;5009591;28;20058;-74
2022/03/12 01:54:30;;;;;;;6.93;5.07;;;;;;;;;;5005697;28;21392;-75
2022/03/12 01:56:58;;;;;;;7.20;4.63;;;;;;;;;;5005066;28;20132;-75
2022/03/12 01:59:24;;;;;;;7.80;5.45;;;;;;;;;;5001581;28;20057;-75
2022/03/12 02:01:52;;;;;;;7.95;5.40;;;;;;;;;;4996382;28;20055;-74
2022/03/12 02:04:20;;;;;;;7.90;5.13;;;;;;;;;;4999330;28;20140;-75
2022/03/12 02:06:46;;;;;;;10.10;6.47;;;;;;;;;;4997876;28;20144;-76
2022/03/12 02:09:15;;;;;;;9.20;6.30;;;;;;;;;;4998005;28;20497;-74
2022/03/12 02:11:44;;;;;;;9.43;5.95;;;;;;;;;;4997585;28;20110;-74
2022/03/12 02:14:15;;;;;;;7.85;5.65;;;;;;;;;;5001965;28;20799;-76
2022/03/12 02:16:45;;;;;;;7.90;5.20;;;;;;;;;;5004388;28;21509;-75
2022/03/12 02:19:11;;;;;;;7.45;5.03;;;;;;;;;;4999207;28;20058;-74
2022/03/12 02:21:50;;;;;;;7.47;4.90;;;;;;;;;;5001768;28;20046;-75
2022/03/12 02:24:18;;;;;;;8.02;5.15;;;;;;;;;;5008009;28;20126;-75
2022/03/12 02:26:45;;;;;;;9.38;5.97;;;;;;;;;;5005806;28;20042;-75
2022/03/12 02:29:18;;;;;;;8.98;5.47;;;;;;;;;;5003623;28;20058;-75
2022/03/12 02:31:49;;;;;;;8.70;5.25;;;;;;;;;;5006855;28;20058;-76
2022/03/12 02:34:23;;;;;;;7.93;4.88;;;;;;;;;;5003399;28;20084;-75
2022/03/12 02:36:52;;;;;;;6.28;4.47;;;;;;;;;;5001681;28;20042;-76
2022/03/12 02:39:20;;;;;;;5.65;4.25;;;;;;;;;;5002339;28;20095;-76
2022/03/12 02:41:47;;;;;;;8.98;4.70;;;;;;;;;;5003803;28;20042;-77
2022/03/12 02:44:22;;;;;;;7.15;4.90;;;;;;;;;;5000723;28;20050;-76
2022/03/12 02:47:15;;;;;;;6.57;4.57;;;;;;;;;;5004271;28;20414;-76
2022/03/12 02:49:46;;;;;;;7.47;3.63;;;;;;;;;;4998393;28;20052;-73
2022/03/12 02:52:13;;;;;;;3.50;2.92;;;;;;;;;;4999363;28;20058;-77
2022/03/12 02:54:41;;;;;;;5.43;3.30;;;;;;;;;;5011471;28;20091;-76
2022/03/12 02:57:08;;;;;;;5.90;3.33;;;;;;;;;;5010227;28;20062;-72
2022/03/12 02:59:35;;;;;;;4.38;2.97;;;;;;;;;;5002898;28;20145;-74
2022/03/12 03:02:03;;;;;;;5.00;2.80;;;;;;;;;;5001500;28;20115;-76
2022/03/12 03:04:37;;;;;;;3.45;2.50;;;;;;;;;;4998713;28;20045;-75
2022/03/12 03:07:03;;;;;;;3.65;2.72;;;;;;;;;;5001732;28;20049;-76
2022/03/12 03:09:29;;;;;;;5.95;2.50;;;;;;;;;;4994482;28;20251;-73
2022/03/12 03:11:57;;;;;;;4.90;2.25;;;;;;;;;;4997708;28;20300;-72
2022/03/12 03:14:26;;;;;;;2.45;1.80;;;;;;;;;;4994275;28;20058;-74
2022/03/12 03:16:56;;;;;;;3.17;1.90;;;;;;;;;;4997874;28;20052;-75
2022/03/12 03:19:25;;;;;;;2.10;1.70;;;;;;;;;;4993736;28;20124;-75
2022/03/12 03:21:56;;;;;;;2.70;1.67;;;;;;;;;;4998285;28;20150;-76
2022/03/12 03:24:23;;;;;;;3.10;1.88;;;;;;;;;;4999154;28;20558;-75
2022/03/12 03:26:54;;;;;;;2.75;1.58;;;;;;;;;;4998957;28;20681;-75
2022/03/12 03:29:22;;;;;;;3.72;2.08;;;;;;;;;;5019715;28;20531;-74
2022/03/12 03:31:48;;;;;;;2.58;1.40;;;;;;;;;;4997684;28;20132;-73
2022/03/12 03:34:14;;;;;;;4.35;1.50;;;;;;;;;;4999361;28;21055;-75
2022/03/12 03:36:40;;;;;;;3.67;1.70;;;;;;;;;;4997096;28;20049;-76
2022/03/12 03:39:07;;;;;;;3.25;1.65;;;;;;;;;;4997021;28;20558;-73
2022/03/12 03:41:33;;;;;;;3.38;1.75;;;;;;;;;;4996094;28;20171;-76
2022/03/12 03:44:00;;;;;;;4.35;1.60;;;;;;;;;;5000955;28;20150;-76
2022/03/12 03:46:26;;;;;;;2.95;1.70;;;;;;;;;;5000286;28;20042;-74
2022/03/12 03:48:54;;;;;;;2.75;1.25;;;;;;;;;;4992920;28;20517;-75
2022/03/12 03:51:21;;;;;;;3.13;1.65;;;;;;;;;;4996613;28;20061;-74
2022/03/12 03:53:48;;;;;;;3.97;1.73;;;;;;;;;;5001360;28;20407;-75
2022/03/12 03:56:15;;;;;;;3.15;1.45;;;;;;;;;;5000186;28;20045;-75
2022/03/12 03:58:41;;;;;;;2.08;1.60;;;;;;;;;;4993337;28;20054;-73
2022/03/12 04:01:12;;;;;;;1.50;1.27;;;;;;;;;;5000533;28;20507;-74
2022/03/12 04:03:41;;;;;;;2.67;1.48;;;;;;;;;;5003409;28;20054;-75
2022/03/12 04:06:07;;;;;;;2.35;1.35;;;;;;;;;;5000065;28;20054;-75
2022/03/12 04:08:34;;;;;;;2.50;1.30;;;;;;;;;;4997533;28;20069;-75
2022/03/12 04:11:04;;;;;;;3.28;1.20;;;;;;;;;;5000575;28;20062;-73
2022/03/12 04:13:31;;;;;;;2.85;1.23;;;;;;;;;;5000965;28;20665;-75
2022/03/12 04:16:00;;;;;;;1.77;1.10;;;;;;;;;;4998358;28;20525;-73
2022/03/12 04:18:26;;;;;;;2.08;1.30;;;;;;;;;;4994263;28;20056;-74
2022/03/12 04:20:53;;;;;;;1.95;1.17;;;;;;;;;;4995935;28;20054;-74
2022/03/12 04:23:24;;;;;;;1.85;1.00;;;;;;;;;;4999842;28;20118;-75
2022/03/12 04:25:52;;;;;;;1.75;1.00;;;;;;;;;;5000805;28;20042;-75
2022/03/12 04:28:19;;;;;;;2.58;1.13;;;;;;;;;;4994574;28;20473;-76
2022/03/12 04:30:46;;;;;;;1.95;1.10;;;;;;;;;;5002000;28;20048;-73
2022/03/12 04:33:14;;;;;;;3.75;1.15;;;;;;;;;;5005011;28;20248;-76
2022/03/12 04:35:43;;;;;;;1.48;1.13;;;;;;;;;;5006904;28;20045;-75
2022/03/12 04:38:11;;;;;;;2.45;1.00;;;;;;;;;;5004375;28;20072;-75
2022/03/12 04:40:40;;;;;;;2.42;1.27;;;;;;;;;;5007938;28;20054;-73
2022/03/12 04:43:07;;;;;;;4.15;1.50;;;;;;;;;;5005491;28;20112;-73
2022/03/12 04:45:34;;;;;;;2.08;1.25;;;;;;;;;;5005964;28;20159;-76
2022/03/12 04:48:00;;;;;;;3.25;1.50;;;;;;;;;;5005155;28;20647;-75
2022/03/12 04:50:25;;;;;;;2.72;1.40;;;;;;;;;;5002998;28;20107;-73
2022/03/12 04:52:57;;;;;;;2.15;1.40;;;;;;;;;;4999699;28;20545;-76
2022/03/12 04:55:25;;;;;;;2.65;1.40;;;;;;;;;;5002425;28;20081;-76
2022/03/12 04:57:52;;;;;;;3.95;1.38;;;;;;;;;;5002723;28;20103;-75
2022/03/12 05:00:39;;;;;;;3.10;1.27;;;;;;;;;;5004149;28;20045;-75
2022/03/12 05:03:08;;;;;;;2.90;1.10;;;;;;;;;;5005498;28;20355;-72
2022/03/12 05:05:43;;;;;;;1.52;1.10;;;;;;;;;;5003586;28;20666;-74
2022/03/12 05:08:15;;;;;;;2.72;0.80;;;;;;;;;;5002115;28;20059;-76
2022/03/12 05:10:43;;;;;;;1.23;0.82;;;;;;;;;;5003611;28;20704;-74
2022/03/12 05:13:10;;;;;;;1.65;1.00;;;;;;;;;;5003453;28;20066;-76
2022/03/12 05:15:37;;;;;;;2.70;0.80;;;;;;;;;;5003024;28;20045;-74
2022/03/12 05:18:11;;;;;;;1.17;0.80;;;;;;;;;;4998086;28;20076;-74
2022/03/12 05:20:38;;;;;;;0.80;0.80;;;;;;;;;;5001786;28;20344;-73
2022/03/12 05:23:07;;;;;;;2.85;1.00;;;;;;;;;;5001619;28;20045;-73
2022/03/12 05:25:35;;;;;;;1.33;0.80;;;;;;;;;;5003297;28;20054;-73
2022/03/12 05:28:01;;;;;;;0.93;0.80;;;;;;;;;;4998286;28;20501;-74
2022/03/12 05:30:30;;;;;;;0.70;0.70;;;;;;;;;;4999560;28;20045;-76
2022/03/12 05:32:56;;;;;;;0.73;0.68;;;;;;;;;;4998167;28;20052;-74
2022/03/12 05:35:22;;;;;;;0.77;0.63;;;;;;;;;;5002768;28;20053;-77
2022/03/12 05:37:50;;;;;;;0.70;0.70;;;;;;;;;;4999295;28;20144;-74
2022/03/12 05:40:23;;;;;;;1.45;0.80;;;;;;;;;;5003215;28;20492;-77
2022/03/12 05:42:49;;;;;;;0.77;0.60;;;;;;;;;;5005715;28;20046;-76
2022/03/12 05:45:19;;;;;;;1.63;1.00;;;;;;;;;;5004502;28;20135;-74
2022/03/12 05:47:46;;;;;;;0.90;0.70;;;;;;;;;;4997046;28;20453;-74
2022/03/12 05:50:13;;;;;;;1.05;0.77;;;;;;;;;;5002922;28;20050;-77
2022/03/12 05:52:40;;;;;;;1.17;0.88;;;;;;;;;;5003964;28;20131;-75
2022/03/12 05:55:08;;;;;;;2.05;0.88;;;;;;;;;;5001763;28;20042;-76
2022/03/12 05:57:38;;;;;;;2.63;0.80;;;;;;;;;;5004315;28;20053;-73
2022/03/12 06:00:08;;;;;;;4.13;0.80;;;;;;;;;;5006327;28;20046;-75
2022/03/12 06:02:34;;;;;;;2.22;1.10;;;;;;;;;;5000427;28;20117;-73
2022/03/12 06:05:00;;;;;;;0.80;0.80;;;;;;;;;;5004933;28;20103;-73
2022/03/12 06:07:27;;;;;;;1.83;0.77;;;;;;;;;;5000144;28;20141;-75
2022/03/12 06:09:55;;;;;;;1.55;0.98;;;;;;;;;;5003862;28;20087;-74
2022/03/12 06:12:21;;;;;;;1.13;0.82;;;;;;;;;;5000875;28;20131;-75
2022/03/12 06:14:51;;;;;;;1.67;0.93;;;;;;;;;;5003251;28;20069;-77
2022/03/12 06:17:18;;;;;;;1.08;0.90;;;;;;;;;;5000925;28;20061;-75
2022/03/12 06:19:44;;;;;;;4.75;1.30;;;;;;;;;;5003350;28;20037;-76
2022/03/12 06:22:09;;;;;;;2.03;1.30;;;;;;;;;;5001307;28;21164;-75
2022/03/12 06:24:35;;;;;;;1.50;1.05;;;;;;;;;;4999818;28;20060;-73
2022/03/12 06:27:02;;;;;;;2.22;1.50;;;;;;;;;;5002749;28;20050;-72
2022/03/12 06:29:28;;;;;;;1.67;1.27;;;;;;;;;;4997107;28;20064;-74
2022/03/12 06:31:54;;;;;;;1.60;1.10;;;;;;;;;;5000583;28;20053;-76
2022/03/12 06:34:20;;;;;;;2.58;1.27;;;;;;;;;;5002459;28;20061;-77
2022/03/12 06:36:46;;;;;;;2.30;1.10;;;;;;;;;;5002097;28;20068;-77
2022/03/12 06:39:13;;;;;;;2.45;1.17;;;;;;;;;;4997902;28;20073;-76
2022/03/12 06:41:43;;;;;;;1.35;1.05;;;;;;;;;;5001273;28;20057;-74
2022/03/12 06:44:09;;;;;;;1.30;0.98;;;;;;;;;;5000761;28;20053;-74
2022/03/12 06:46:36;;;;;;;1.95;1.17;;;;;;;;;;4998025;28;20211;-78
2022/03/12 06:49:04;;;;;;;2.00;1.13;;;;;;;;;;4995844;28;20048;-73
2022/03/12 06:51:31;;;;;;;2.60;1.35;;;;;;;;;;5001614;28;20084;-74
2022/03/12 06:53:57;;;;;;;2.35;1.20;;;;;;;;;;5004116;28;20054;-72
2022/03/12 06:56:23;;;;;;;1.17;1.00;;;;;;;;;;4999367;28;20042;-79
2022/03/12 06:58:49;;;;;;;1.48;0.80;;;;;;;;;;4997122;28;20050;-74
2022/03/12 07:01:15;;;;;;;7.82;1.60;;;;;;;;;;5005636;28;20053;-77
2022/03/12 07:03:41;;;;;;;1.48;0.90;;;;;;;;;;5008300;28;20551;-74
2022/03/12 07:06:07;;;;;;;1.60;0.90;;;;;;;;;;5005486;28;20812;-75
2022/03/12 07:08:35;;;;;;;0.90;0.77;;;;;;;;;;5002108;28;20542;-75
2022/03/12 07:11:02;;;;;;;3.50;1.30;;;;;;;;;;5002183;28;20049;-79
2022/03/12 07:13:28;;;;;;;1.88;1.10;;;;;;;;;;5004012;28;20503;-77
2022/03/12 07:15:56;;;;;;;3.60;0.90;;;;;;;;;;5006873;28;20056;-74
2022/03/12 07:18:22;;;;;;;2.40;1.20;;;;;;;;;;4999093;28;20104;-76
2022/03/12 07:20:48;;;;;;;1.63;1.10;;;;;;;;;;5008090;28;20050;-78
2022/03/12 07:23:14;;;;;;;2.58;1.52;;;;;;;;;;5006820;28;20399;-75
2022/03/12 07:25:40;;;;;;;1.10;1.00;;;;;;;;;;5008051;28;20049;-75
2022/03/12 07:28:06;;;;;;;5.05;1.38;;;;;;;;;;4992169;28;20077;-73
2022/03/12 07:30:32;;;;;;;2.40;1.00;;;;;;;;;;4994750;28;20049;-72
2022/03/12 07:32:58;;;;;;;2.65;1.10;;;;;;;;;;4994532;28;20046;-74
2022/03/12 07:35:26;;;;;;;7.05;1.35;;;;;;;;;;4999819;28;20061;-75
2022/03/12 07:37:52;;;;;;;2.50;1.30;;;;;;;;;;4992296;28;20053;-75
2022/03/12 07:40:18;;;;;;;3.42;1.33;;;;;;;;;;4988663;28;20049;-74
2022/03/12 07:42:45;;;;;;;3.40;1.20;;;;;;;;;;4998395;28;20041;-76
2022/03/12 07:45:11;;;;;;;2.17;1.08;;;;;;;;;;4986820;28;20423;-75
2022/03/12 07:47:38;;;;;;;2.47;1.05;;;;;;;;;;4994501;28;20049;-74
2022/03/12 07:50:05;;;;;;;2.08;1.13;;;;;;;;;;4995532;28;20061;-82
2022/03/12 07:52:31;;;;;;;2.20;1.10;;;;;;;;;;4998200;28;20123;-73
2022/03/12 07:54:57;;;;;;;1.98;1.00;;;;;;;;;;5000562;28;20053;-76
2022/03/12 07:57:28;;;;;;;9.27;1.40;;;;;;;;;;5001158;28;20255;-76
2022/03/12 07:59:54;;;;;;;1.80;0.80;;;;;;;;;;5003740;28;20050;-73
2022/03/12 08:02:20;;;;;;;2.88;1.10;;;;;;;;;;5002859;28;20050;-75
2022/03/12 08:04:46;;;;;;;1.35;0.85;;;;;;;;;;5001551;28;20050;-73
2022/03/12 08:07:12;;;;;;;3.78;0.80;;;;;;;;;;4994407;28;21070;-75
2022/03/12 08:09:38;;;;;;;3.47;0.75;;;;;;;;;;4991967;28;20049;-75
2022/03/12 08:12:04;;;;;;;7.40;0.77;;;;;;;;;;4999814;28;20045;-74
2022/03/12 08:14:33;;;;;;;5.13;0.95;;;;;;;;;;5000176;28;20581;-77
2022/03/12 08:16:59;;;;;;;4.47;0.90;;;;;;;;;;4995053;28;20421;-73
2022/03/12 08:19:25;;;;;;;3.63;1.30;;;;;;;;;;4989585;28;20078;-76
2022/03/12 08:21:52;;;;;;;2.00;1.00;;;;;;;;;;4997542;28;20119;-77
2022/03/12 08:24:19;;;;;;;1.35;0.90;;;;;;;;;;4996628;28;20458;-76
2022/03/12 08:26:48;;;;;;;3.75;0.85;;;;;;;;;;4996938;28;20819;-76
2022/03/12 08:29:15;;;;;;;3.25;1.02;;;;;;;;;;4994166;28;20054;-75
2022/03/12 08:31:41;;;;;;;3.20;1.00;;;;;;;;;;5001626;28;20057;-77
2022/03/12 08:34:08;;;;;;;6.60;1.23;;;;;;;;;;5000668;28;20050;-76
2022/03/12 08:36:34;;;;;;;3.42;1.23;;;;;;;;;;5000182;28;20053;-75
2022/03/12 08:39:01;;;;;;;3.15;1.13;;;;;;;;;;4998933;28;20061;-74
2022/03/12 08:41:27;;;;;;;4.95;1.80;;;;;;;;;;5004862;28;20046;-78
2022/03/12 08:43:53;;;;;;;2.80;1.20;;;;;;;;;;4995270;28;20050;-75
2022/03/12 08:46:19;;;;;;;3.78;1.30;;;;;;;;;;5000446;28;20061;-74
2022/03/12 08:48:46;;;;;;;3.97;1.30;;;;;;;;;;4995407;28;20057;-77
2022/03/12 08:51:12;;;;;;;2.30;1.10;;;;;;;;;;4993443;28;20049;-76
2022/03/12 08:53:38;;;;;;;3.58;1.40;;;;;;;;;;4995805;28;20114;-75
2022/03/12 08:56:04;;;;;;;2.05;1.05;;;;;;;;;;4996123;28;20050;-75
2022/03/12 08:58:31;;;;;;;1.83;0.90;;;;;;;;;;4994419;28;20069;-75
2022/03/12 09:00:59;;;;;;;4.38;0.95;;;;;;;;;;5000160;28;20069;-76
2022/03/12 09:03:26;;;;;;;1.77;1.10;;;;;;;;;;4996837;28;20046;-76
2022/03/12 09:05:52;;;;;;;2.17;0.90;;;;;;;;;;5003530;28;20510;-72
2022/03/12 09:08:19;;;;;;;1.30;0.95;;;;;;;;;;4998181;28;20141;-78
2022/03/12 09:10:46;;;;;;;5.03;0.85;;;;;;;;;;4997596;28;20065;-72
2022/03/12 09:13:13;;;;;;;4.18;0.90;;;;;;;;;;4985898;28;20104;-74
2022/03/12 09:15:41;;;;;;;3.10;1.02;;;;;;;;;;4986642;28;20062;-72
2022/03/12 09:18:08;;;;;;;2.90;1.08;;;;;;;;;;4981575;28;21881;-75
2022/03/12 09:20:38;;;;;;;6.00;1.27;;;;;;;;;;4990688;28;20494;-73
2022/03/12 09:23:04;;;;;;;7.18;3.40;;;;;;;;;;4992914;28;20053;-73
2022/03/12 09:25:30;;;;;;;2.03;0.80;;;;;;;;;;4992670;28;20723;-73
2022/03/12 09:27:56;;;;;;;4.03;1.73;;;;;;;;;;4988682;28;20049;-72
2022/03/12 09:30:22;;;;;;;2.17;1.10;;;;;;;;;;4991500;28;20056;-74
2022/03/12 09:32:48;;;;;;;1.75;0.90;;;;;;;;;;4992532;28;20597;-75
2022/03/12 09:35:14;;;;;;;2.88;1.02;;;;;;;;;;4989303;28;20404;-75
2022/03/12 09:37:40;;;;;;;2.10;0.80;;;;;;;;;;4987919;28;20046;-73
2022/03/12 09:40:08;;;;;;;1.90;1.00;;;;;;;;;;4991101;28;20534;-77
2022/03/12 09:42:34;;;;;;;2.90;1.13;;;;;;;;;;4991067;28;20687;-75
2022/03/12 09:45:03;;;;;;;3.35;1.00;;;;;;;;;;4992193;28;20057;-71
2022/03/12 09:47:29;;;;;;;3.15;1.30;;;;;;;;;;4990477;28;20508;-73
2022/03/12 09:49:55;;;;;;;2.80;1.10;;;;;;;;;;5001651;28;20042;-76
2022/03/12 09:52:21;;;;;;;5.05;1.00;;;;;;;;;;4995819;28;20050;-76
2022/03/12 09:54:49;;;;;;;3.03;1.20;;;;;;;;;;4998701;28;20049;-70
2022/03/12 09:57:15;;;;;;;2.70;1.20;;;;;;;;;;5002464;28;20484;-79
2022/03/12 09:59:42;;;;;;;2.05;0.90;;;;;;;;;;5006504;28;20517;-75
2022/03/12 10:02:08;;;;;;;1.95;1.20;;;;;;;;;;5007858;28;20658;-75
2022/03/12 10:04:34;;;;;;;1.77;1.00;;;;;;;;;;4999752;28;20096;-75
2022/03/12 10:07:01;;;;;;;3.30;1.08;;;;;;;;;;4992648;28;21754;-72
2022/03/12 10:09:26;;;;;;;2.15;1.25;;;;;;;;;;4986790;28;20446;-71
2022/03/12 10:11:53;;;;;;;2.20;0.93;;;;;;;;;;4995699;28;20069;-73
2022/03/12 10:14:20;;;;;;;2.30;0.85;;;;;;;;;;4995511;28;20054;-75
2022/03/12 10:16:54;;;;;;;2.00;1.10;;;;;;;;;;4999790;28;20096;-73
2022/03/12 10:19:20;;;;;;;12.55;1.52;;;;;;;;;;5000686;28;20570;-74
2022/03/12 10:21:47;;;;;;;1.92;1.20;;;;;;;;;;4990318;28;20507;-71
2022/03/12 10:24:14;;;;;;;3.40;1.33;;;;;;;;;;5001582;28;20140;-77
2022/03/12 10:26:42;;;;;;;3.03;1.27;;;;;;;;;;5011640;28;20056;-75
2022/03/12 10:29:09;;;;;;;3.15;0.90;;;;;;;;;;5004227;28;20060;-71
2022/03/12 10:31:38;;;;;;;2.38;1.15;;;;;;;;;;5020263;28;20049;-72
2022/03/12 10:34:24;;;;;;;4.00;1.17;;;;;;;;;;5025075;28;20411;-75
2022/03/12 10:36:57;;;;;;;2.95;0.98;;;;;;;;;;5024690;28;20096;-74
2022/03/12 10:39:34;;;;;;;2.28;1.15;;;;;;;;;;5020923;28;20511;-75
2022/03/12 10:42:08;;;;;;;2.08;0.90;;;;;;;;;;5014727;28;20049;-70
2022/03/12 10:44:39;;;;;;;1.75;1.10;;;;;;;;;;5021365;28;20160;-71
2022/03/12 10:47:22;;;;;;;1.63;0.85;;;;;;;;;;5016408;28;20054;-72
2022/03/12 10:50:02;;;;;;;1.95;0.95;;;;;;;;;;5016963;28;20050;-76
2022/03/12 10:52:31;;;;;;;5.25;2.20;;;;;;;;;;5015406;28;20052;-68
2022/03/12 10:54:58;;;;;;;4.05;1.65;;;;;;;;;;5020167;28;20042;-72
2022/03/12 10:57:24;;;;;;;2.78;1.35;;;;;;;;;;5022158;28;20121;-74
2022/03/12 10:59:54;;;;;;;13.20;1.40;;;;;;;;;;5023335;28;20066;-73
2022/03/12 11:02:20;;;;;;;2.53;1.02;;;;;;;;;;5021497;28;20502;-73
2022/03/12 11:04:46;;;;;;;3.13;1.10;;;;;;;;;;5030754;28;20064;-76
2022/03/12 11:07:26;;;;;;;1.85;1.10;;;;;;;;;;5030198;28;20049;-73
2022/03/12 11:09:53;;;;;;;5.20;3.05;;;;;;;;;;5029498;28;20366;-76
2022/03/12 11:12:35;;;;;;;6.10;1.20;;;;;;;;;;5031362;28;20435;-71
2022/03/12 11:15:05;;;;;;;1.40;0.90;;;;;;;;;;5021616;28;20407;-71
2022/03/12 11:17:44;;;;;;;2.17;0.85;;;;;;;;;;5024983;28;20057;-72
2022/03/12 11:20:28;;;;;;;2.97;1.08;;;;;;;;;;5022627;28;20128;-71
2022/03/12 11:23:08;;;;;;;4.72;1.40;;;;;;;;;;5020434;28;20045;-73
2022/03/12 11:25:36;;;;;;;4.53;1.60;;;;;;;;;;5028556;28;20060;-74
2022/03/12 11:28:19;;;;;;;4.82;1.30;;;;;;;;;;5022636;28;20064;-73
2022/03/12 11:30:45;;;;;;;3.47;1.55;;;;;;;;;;5023038;28;20045;-71
2022/03/12 11:33:12;;;;;;;2.67;1.33;;;;;;;;;;5031201;28;20056;-71
2022/03/12 11:35:45;;;;;;;2.72;1.10;;;;;;;;;;5029806;28;20092;-72
2022/03/12 11:38:17;;;;;;;4.13;1.38;;;;;;;;;;5027169;28;20053;-69
2022/03/12 11:40:46;;;;;;;3.58;1.30;;;;;;;;;;5030636;28;20576;-73
2022/03/12 11:43:21;;;;;;;2.47;1.15;;;;;;;;;;5031321;28;20045;-70
2022/03/12 11:45:48;;;;;;;2.85;1.20;;;;;;;;;;5022343;28;20057;-74
2022/03/12 11:48:15;;;;;;;5.72;2.35;;;;;;;;;;5022597;28;20084;-70
2022/03/12 11:50:40;;;;;;;4.03;1.63;;;;;;;;;;5021539;28;20079;-75
2022/03/12 11:53:07;;;;;;;8.35;1.33;;;;;;;;;;5022442;28;20049;-68
2022/03/12 11:55:34;;;;;;;2.25;1.10;;;;;;;;;;5025210;28;20045;-68
2022/03/12 11:58:00;;;;;;;2.53;1.10;;;;;;;;;;5022742;28;20128;-67
2022/03/12 12:00:31;;;;;;;2.90;0.90;;;;;;;;;;5026635;28;20076;-68
2022/03/12 12:02:57;;;;;;;1.58;0.95;;;;;;;;;;5021485;28;20046;-70
2022/03/12 12:05:27;;;;;;;1.98;1.02;;;;;;;;;;5018119;28;20054;-73
2022/03/12 12:07:55;;;;;;;1.90;0.85;;;;;;;;;;5019084;28;20046;-69
2022/03/12 12:10:27;;;;;;;2.13;1.20;;;;;;;;;;5021107;28;20041;-69
2022/03/12 12:12:53;;;;;;;2.85;1.05;;;;;;;;;;5022955;28;20107;-68
2022/03/12 12:15:29;;;;;;;2.95;1.10;;;;;;;;;;5023076;28;20063;-72
2022/03/12 12:17:56;;;;;;;2.25;0.93;;;;;;;;;;5017205;28;20060;-72
2022/03/12 12:20:23;;;;;;;2.30;1.00;;;;;;;;;;5018919;28;20110;-73
2022/03/12 12:22:50;;;;;;;2.92;1.08;;;;;;;;;;5021605;28;20885;-69
2022/03/12 12:25:17;;;;;;;4.72;0.98;;;;;;;;;;5018350;28;20052;-67
2022/03/12 12:27:51;;;;;;;1.73;0.80;;;;;;;;;;5015618;28;20880;-68
2022/03/12 12:30:37;;;;;;;6.72;1.20;;;;;;;;;;5018661;28;20507;-71
2022/03/12 12:33:22;;;;;;;4.40;1.35;;;;;;;;;;5015757;28;20108;-70
2022/03/12 12:35:50;;;;;;;4.38;1.45;;;;;;;;;;5018349;28;20558;-75
2022/03/12 12:38:20;;;;;;;3.20;1.23;;;;;;;;;;5015441;28;20085;-69
2022/03/12 12:40:47;;;;;;;2.75;1.10;;;;;;;;;;5017170;28;20454;-70
2022/03/12 12:43:18;;;;;;;3.70;0.93;;;;;;;;;;5019843;28;20041;-72
2022/03/12 12:45:53;;;;;;;2.33;1.10;;;;;;;;;;5020385;28;20160;-75
2022/03/12 12:48:30;;;;;;;2.22;1.10;;;;;;;;;;5020173;28;20626;-69
2022/03/12 12:51:29;;;;;;;3.90;1.38;;;;;;;;;;5019997;28;20057;-72
2022/03/12 12:54:00;;;;;;;2.15;1.15;;;;;;;;;;5020335;28;20053;-70
2022/03/12 12:56:30;;;;;;;2.53;1.10;;;;;;;;;;5019090;28;20140;-69
2022/03/12 12:58:56;;;;;;;4.50;1.38;;;;;;;;;;5019041;28;20542;-73
2022/03/12 13:01:29;;;;;;;3.55;1.10;;;;;;;;;;5021931;28;20111;-72
2022/03/12 13:03:55;;;;;;;3.30;1.17;;;;;;;;;;5022875;28;20533;-71
2022/03/12 13:06:36;;;;;;;5.10;2.05;;;;;;;;;;5025908;28;20057;-72
2022/03/12 13:09:08;;;;;;;3.00;1.20;;;;;;;;;;5017995;28;20049;-75
2022/03/12 13:12:06;;;;;;;4.15;1.63;;;;;;;;;;5018906;28;20042;-69
2022/03/12 13:14:44;;;;;;;2.17;1.20;;;;;;;;;;5025872;28;20057;-73
2022/03/12 13:17:25;;;;;;;4.57;1.35;;;;;;;;;;5028140;28;20056;-69
2022/03/12 13:19:51;;;;;;;2.47;1.30;;;;;;;;;;5026737;28;20046;-75
2022/03/12 13:22:19;;;;;;;2.05;1.17;;;;;;;;;;5029163;28;20145;-72
2022/03/12 13:25:03;;;;;;;1.60;0.98;;;;;;;;;;5024560;28;20140;-72
2022/03/12 13:27:32;;;;;;;2.97;1.08;;;;;;;;;;5020433;28;20053;-77
2022/03/12 13:30:17;;;;;;;3.13;1.13;;;;;;;;;;5021813;28;20058;-75
2022/03/12 13:32:46;;;;;;;1.80;1.20;;;;;;;;;;5024108;28;20045;-73
2022/03/12 13:35:17;;;;;;;2.83;1.73;;;;;;;;;;5023366;28;20065;-73
2022/03/12 13:37:43;;;;;;;2.42;1.33;;;;;;;;;;5029739;28;20064;-74
2022/03/12 13:40:12;;;;;;;5.45;1.48;;;;;;;;;;5021864;28;20049;-71
2022/03/12 13:42:49;;;;;;;3.47;1.20;;;;;;;;;;5027342;28;20046;-72
2022/03/12 13:45:18;;;;;;;5.63;1.50;;;;;;;;;;5027600;28;20426;-72
2022/03/12 13:47:50;;;;;;;4.30;1.40;;;;;;;;;;5024265;28;20867;-69
2022/03/12 13:50:16;;;;;;;2.22;1.40;;;;;;;;;;5018953;28;20042;-72
2022/03/12 13:52:42;;;;;;;1.67;1.27;;;;;;;;;;5023090;28;20409;-69
2022/03/12 13:55:09;;;;;;;2.88;1.58;;;;;;;;;;5025265;28;20038;-73
2022/03/12 13:57:36;;;;;;;2.90;1.40;;;;;;;;;;5026251;28;20060;-72
2022/03/12 14:00:04;;;;;;;6.97;1.52;;;;;;;;;;5025741;28;20068;-71
2022/03/12 14:02:29;;;;;;;4.15;1.48;;;;;;;;;;5022119;28;20052;-71
2022/03/12 14:04:56;;;;;;;4.55;1.80;;;;;;;;;;5028245;28;20049;-74
2022/03/12 14:07:22;;;;;;;3.35;1.40;;;;;;;;;;5028547;28;20060;-72
2022/03/12 14:09:49;;;;;;;2.45;1.35;;;;;;;;;;5022330;28;20075;-70
2022/03/12 14:12:24;;;;;;;4.75;1.35;;;;;;;;;;5022798;28;20049;-72
2022/03/12 14:14:52;;;;;;;2.70;1.40;;;;;;;;;;5022821;28;20101;-74
2022/03/12 14:17:29;;;;;;;3.03;1.15;;;;;;;;;;5016358;28;20073;-73
2022/03/12 14:19:56;;;;;;;3.50;1.40;;;;;;;;;;5018028;28;20046;-74
2022/03/12 14:22:23;;;;;;;3.30;1.30;;;;;;;;;;5019930;28;20054;-73
2022/03/12 14:24:52;;;;;;;5.32;1.30;;;;;;;;;;5019593;28;20049;-71
2022/03/12 14:27:18;;;;;;;1.75;1.00;;;;;;;;;;5019076;28;20499;-71
2022/03/12 14:29:44;;;;;;;4.93;1.50;;;;;;;;;;5021326;28;20054;-71
2022/03/12 14:32:13;;;;;;;1.85;0.98;;;;;;;;;;5021428;28;20041;-76
2022/03/12 14:34:44;;;;;;;2.42;1.00;;;;;;;;;;5021491;28;20033;-70
2022/03/12 14:37:11;;;;;;;2.95;1.17;;;;;;;;;;5026712;28;20499;-70
2022/03/12 14:39:41;;;;;;;2.80;1.10;;;;;;;;;;5025390;28;20045;-72
2022/03/12 14:42:11;;;;;;;3.45;1.17;;;;;;;;;;5021262;28;20038;-78
2022/03/12 14:44:43;;;;;;;2.78;0.80;;;;;;;;;;5017227;28;20545;-70
2022/03/12 14:47:11;;;;;;;3.47;1.00;;;;;;;;;;5020596;28;20166;-72
2022/03/12 14:49:40;;;;;;;2.28;1.02;;;;;;;;;;5025430;28;20103;-70
2022/03/12 14:52:23;;;;;;;2.75;1.10;;;;;;;;;;5021879;28;20045;-73